sensor_id;sensor_type;location;lat;lon;timestamp;pressure;altitude;pressure_sealevel;temperature
76901;BMP280;65859;43.020;25.096;2023-01-19T00:00:42;98176.34;;;16.02
76901;BMP280;65859;43.020;25.096;2023-01-19T00:03:08;98182.53;;;15.92
76901;BMP280;65859;43.020;25.096;2023-01-19T00:05:42;98178.72;;;15.89
76901;BMP280;65859;43.020;25.096;2023-01-19T00:08:09;98185.56;;;15.94
76901;BMP280;65859;43.020;25.096;2023-01-19T00:10:45;98156.53;;;15.88
76901;BMP280;65859;43.020;25.096;2023-01-19T00:13:11;98166.47;;;15.92
76901;BMP280;65859;43.020;25.096;2023-01-19T00:15:37;98168.34;;;15.91
76901;BMP280;65859;43.020;25.096;2023-01-19T00:18:07;98171.00;;;16.05
76901;BMP280;65859;43.020;25.096;2023-01-19T00:20:33;98176.75;;;16.04
76901;BMP280;65859;43.020;25.096;2023-01-19T00:23:00;98184.03;;;16.03
76901;BMP280;65859;43.020;25.096;2023-01-19T00:25:27;98176.75;;;16.04
76901;BMP280;65859;43.020;25.096;2023-01-19T00:27:53;98161.88;;;15.99
76901;BMP280;65859;43.020;25.096;2023-01-19T00:30:19;98185.56;;;15.94
76901;BMP280;65859;43.020;25.096;2023-01-19T00:32:45;98174.88;;;16.01
76901;BMP280;65859;43.020;25.096;2023-01-19T00:35:12;98182.53;;;15.92
76901;BMP280;65859;43.020;25.096;2023-01-19T00:37:39;98189.41;;;15.93
76901;BMP280;65859;43.020;25.096;2023-01-19T00:40:05;98195.91;;;15.81
76901;BMP280;65859;43.020;25.096;2023-01-19T00:42:32;98193.22;;;15.92
76901;BMP280;65859;43.020;25.096;2023-01-19T00:45:10;98200.09;;;15.93
76901;BMP280;65859;43.020;25.096;2023-01-19T00:47:36;98198.94;;;15.94
76901;BMP280;65859;43.020;25.096;2023-01-19T00:50:04;98197.03;;;15.90
76901;BMP280;65859;43.020;25.096;2023-01-19T00:52:31;98208.50;;;15.87
76901;BMP280;65859;43.020;25.096;2023-01-19T00:54:57;98207.75;;;15.83
76901;BMP280;65859;43.020;25.096;2023-01-19T00:57:23;98197.81;;;15.80
76901;BMP280;65859;43.020;25.096;2023-01-19T00:59:49;98215.00;;;15.83
76901;BMP280;65859;43.020;25.096;2023-01-19T01:02:15;98202.38;;;15.80
76901;BMP280;65859;43.020;25.096;2023-01-19T01:04:42;98201.28;;;15.77
76901;BMP280;65859;43.020;25.096;2023-01-19T01:07:08;98211.56;;;15.97
76901;BMP280;65859;43.020;25.096;2023-01-19T01:09:35;98225.69;;;15.94
76901;BMP280;65859;43.020;25.096;2023-01-19T01:12:02;98219.56;;;15.79
76901;BMP280;65859;43.020;25.096;2023-01-19T01:14:28;98222.25;;;15.75
76901;BMP280;65859;43.020;25.096;2023-01-19T01:16:54;98218.81;;;15.85
76901;BMP280;65859;43.020;25.096;2023-01-19T01:19:21;98219.97;;;15.74
76901;BMP280;65859;43.020;25.096;2023-01-19T01:21:47;98225.72;;;15.72
76901;BMP280;65859;43.020;25.096;2023-01-19T01:24:13;98212.31;;;15.65
76901;BMP280;65859;43.020;25.096;2023-01-19T01:26:39;98213.47;;;15.64
76901;BMP280;65859;43.020;25.096;2023-01-19T01:29:05;98211.97;;;15.49
76901;BMP280;65859;43.020;25.096;2023-01-19T01:31:33;98215.03;;;15.44
76901;BMP280;65859;43.020;25.096;2023-01-19T01:33:59;98213.09;;;15.44
76901;BMP280;65859;43.020;25.096;2023-01-19T01:36:26;98214.22;;;15.40
76901;BMP280;65859;43.020;25.096;2023-01-19T01:38:56;98212.72;;;15.39
76901;BMP280;65859;43.020;25.096;2023-01-19T01:41:24;98222.25;;;15.40
76901;BMP280;65859;43.020;25.096;2023-01-19T01:43:53;98229.88;;;15.30
76901;BMP280;65859;43.020;25.096;2023-01-19T01:46:21;98236.69;;;15.14
76901;BMP280;65859;43.020;25.096;2023-01-19T01:49:03;98220.63;;;15.07
76901;BMP280;65859;43.020;25.096;2023-01-19T01:51:36;98229.66;;;14.66
76901;BMP280;65859;43.020;25.096;2023-01-19T01:56:46;98217.16;;;14.12
76901;BMP280;65859;43.020;25.096;2023-01-19T01:59:46;98221.19;;;13.92
76901;BMP280;65859;43.020;25.096;2023-01-19T02:02:06;98217.75;;;13.87
76901;BMP280;65859;43.020;25.096;2023-01-19T02:04:54;98219.91;;;14.30
76901;BMP280;65859;43.020;25.096;2023-01-19T02:08:05;98210.09;;;14.44
76901;BMP280;65859;43.020;25.096;2023-01-19T02:10:30;98225.66;;;14.28
76901;BMP280;65859;43.020;25.096;2023-01-19T02:13:16;98219.91;;;14.30
76901;BMP280;65859;43.020;25.096;2023-01-19T02:15:47;98224.06;;;14.96
76901;BMP280;65859;43.020;25.096;2023-01-19T02:18:14;98221.81;;;15.13
76901;BMP280;65859;43.020;25.096;2023-01-19T02:20:42;98215.28;;;14.96
76901;BMP280;65859;43.020;25.096;2023-01-19T02:23:15;98221.09;;;15.23
76901;BMP280;65859;43.020;25.096;2023-01-19T02:25:43;98221.78;;;15.02
76901;BMP280;65859;43.020;25.096;2023-01-19T02:28:09;98226.50;;;14.43
76901;BMP280;65859;43.020;25.096;2023-01-19T02:30:36;98231.78;;;13.81
76901;BMP280;65859;43.020;25.096;2023-01-19T02:33:04;98225.50;;;13.59
76901;BMP280;65859;43.020;25.096;2023-01-19T02:35:32;98230.44;;;13.53
76901;BMP280;65859;43.020;25.096;2023-01-19T02:37:59;98233.72;;;13.43
76901;BMP280;65859;43.020;25.096;2023-01-19T02:40:26;98227.53;;;13.73
76901;BMP280;65859;43.020;25.096;2023-01-19T02:42:54;98224.00;;;13.62
76901;BMP280;65859;43.020;25.096;2023-01-19T02:45:23;98221.03;;;13.29
76901;BMP280;65859;43.020;25.096;2023-01-19T02:47:50;98227.50;;;12.95
76901;BMP280;65859;43.020;25.096;2023-01-19T02:51:20;98231.25;;;13.24
76901;BMP280;65859;43.020;25.096;2023-01-19T02:55:41;98227.63;;;12.75
76901;BMP280;65859;43.020;25.096;2023-01-19T03:00:45;98219.38;;;13.18
76901;BMP280;65859;43.020;25.096;2023-01-19T03:03:31;98240.50;;;13.00
76901;BMP280;65859;43.020;25.096;2023-01-19T03:08:38;98241.06;;;13.16
76901;BMP280;65859;43.020;25.096;2023-01-19T03:11:08;98248.69;;;13.18
76901;BMP280;65859;43.020;25.096;2023-01-19T03:18:51;98238.25;;;12.45
76901;BMP280;65859;43.020;25.096;2023-01-19T03:21:19;98223.28;;;12.64
76901;BMP280;65859;43.020;25.096;2023-01-19T03:23:46;98217.81;;;12.53
76901;BMP280;65859;43.020;25.096;2023-01-19T03:26:15;98233.13;;;12.60
76901;BMP280;65859;43.020;25.096;2023-01-19T03:28:43;98230.63;;;12.74
76901;BMP280;65859;43.020;25.096;2023-01-19T03:31:20;98219.34;;;12.51
76901;BMP280;65859;43.020;25.096;2023-01-19T03:33:49;98217.34;;;12.17
76901;BMP280;65859;43.020;25.096;2023-01-19T03:36:22;98223.63;;;12.32
76901;BMP280;65859;43.020;25.096;2023-01-19T03:38:50;98218.66;;;12.31
76901;BMP280;65859;43.020;25.096;2023-01-19T03:41:17;98211.84;;;12.07
76901;BMP280;65859;43.020;25.096;2023-01-19T03:43:44;98220.28;;;12.12
76901;BMP280;65859;43.020;25.096;2023-01-19T03:46:12;98219.34;;;12.01
76901;BMP280;65859;43.020;25.096;2023-01-19T03:48:43;98227.66;;;11.96
76901;BMP280;65859;43.020;25.096;2023-01-19T03:51:10;98230.19;;;11.66
76901;BMP280;65859;43.020;25.096;2023-01-19T03:53:37;98227.66;;;11.73
76901;BMP280;65859;43.020;25.096;2023-01-19T03:56:03;98230.16;;;11.47
76901;BMP280;65859;43.020;25.096;2023-01-19T03:58:29;98228.00;;;11.52
76901;BMP280;65859;43.020;25.096;2023-01-19T04:00:55;98233.94;;;11.65
76901;BMP280;65859;43.020;25.096;2023-01-19T04:03:22;98235.53;;;11.27
76901;BMP280;65859;43.020;25.096;2023-01-19T04:05:48;98222.34;;;11.54
76901;BMP280;65859;43.020;25.096;2023-01-19T04:08:14;98225.88;;;11.61
76901;BMP280;65859;43.020;25.096;2023-01-19T04:10:40;98222.50;;;11.42
76901;BMP280;65859;43.020;25.096;2023-01-19T04:13:06;98230.19;;;11.66
76901;BMP280;65859;43.020;25.096;2023-01-19T04:15:33;98231.19;;;11.61
76901;BMP280;65859;43.020;25.096;2023-01-19T04:17:59;98229.63;;;11.38
76901;BMP280;65859;43.020;25.096;2023-01-19T04:20:26;98234.19;;;11.37
76901;BMP280;65859;43.020;25.096;2023-01-19T04:22:57;98233.50;;;11.40
76901;BMP280;65859;43.020;25.096;2023-01-19T04:25:23;98225.88;;;11.81
76901;BMP280;65859;43.020;25.096;2023-01-19T04:27:50;98229.75;;;12.10
76901;BMP280;65859;43.020;25.096;2023-01-19T04:30:16;98228.75;;;12.74
76901;BMP280;65859;43.020;25.096;2023-01-19T04:32:43;98241.25;;;12.70
76901;BMP280;65859;43.020;25.096;2023-01-19T04:35:09;98232.44;;;12.36
76901;BMP280;65859;43.020;25.096;2023-01-19T04:37:35;98248.72;;;11.85
76901;BMP280;65859;43.020;25.096;2023-01-19T04:40:02;98248.38;;;11.68
76901;BMP280;65859;43.020;25.096;2023-01-19T04:42:28;98242.91;;;11.80
76901;BMP280;65859;43.020;25.096;2023-01-19T04:44:54;98252.00;;;11.56
76901;BMP280;65859;43.020;25.096;2023-01-19T04:47:20;98258.22;;;11.25
76901;BMP280;65859;43.020;25.096;2023-01-19T04:49:46;98269.72;;;11.29
76901;BMP280;65859;43.020;25.096;2023-01-19T04:52:14;98267.97;;;11.37
76901;BMP280;65859;43.020;25.096;2023-01-19T04:54:40;98263.97;;;10.92
76901;BMP280;65859;43.020;25.096;2023-01-19T04:57:06;98264.16;;;10.48
76901;BMP280;65859;43.020;25.096;2023-01-19T04:59:33;98263.09;;;10.68
76901;BMP280;65859;43.020;25.096;2023-01-19T05:01:59;98261.47;;;10.99
76901;BMP280;65859;43.020;25.096;2023-01-19T05:04:25;98270.69;;;10.86
76901;BMP280;65859;43.020;25.096;2023-01-19T05:06:51;98257.72;;;10.33
76901;BMP280;65859;43.020;25.096;2023-01-19T05:09:19;98264.13;;;10.99
76901;BMP280;65859;43.020;25.096;2023-01-19T05:11:45;98269.94;;;10.69
76901;BMP280;65859;43.020;25.096;2023-01-19T05:14:11;98268.06;;;9.91
76901;BMP280;65859;43.020;25.096;2023-01-19T05:16:37;98255.84;;;10.18
76901;BMP280;65859;43.020;25.096;2023-01-19T05:19:04;98279.88;;;9.93
76901;BMP280;65859;43.020;25.096;2023-01-19T05:21:31;98271.16;;;10.09
76901;BMP280;65859;43.020;25.096;2023-01-19T05:23:58;98262.47;;;10.56
76901;BMP280;65859;43.020;25.096;2023-01-19T05:26:25;98263.28;;;9.96
76901;BMP280;65859;43.020;25.096;2023-01-19T05:28:51;98267.03;;;9.80
76901;BMP280;65859;43.020;25.096;2023-01-19T05:31:17;98272.59;;;9.90
76901;BMP280;65859;43.020;25.096;2023-01-19T05:33:43;98279.81;;;9.78
76901;BMP280;65859;43.020;25.096;2023-01-19T05:36:09;98282.03;;;10.19
76901;BMP280;65859;43.020;25.096;2023-01-19T05:38:35;98271.94;;;9.65
76901;BMP280;65859;43.020;25.096;2023-01-19T05:41:02;98275.97;;;10.19
76901;BMP280;65859;43.020;25.096;2023-01-19T05:43:28;98283.94;;;10.19
76901;BMP280;65859;43.020;25.096;2023-01-19T05:45:54;98289.72;;;9.81
76901;BMP280;65859;43.020;25.096;2023-01-19T05:48:20;98277.75;;;10.15
76901;BMP280;65859;43.020;25.096;2023-01-19T05:50:46;98268.25;;;10.30
76901;BMP280;65859;43.020;25.096;2023-01-19T05:53:14;98285.78;;;10.03
76901;BMP280;65859;43.020;25.096;2023-01-19T05:55:42;98287.50;;;10.26
76901;BMP280;65859;43.020;25.096;2023-01-19T05:58:09;98289.13;;;10.15
76901;BMP280;65859;43.020;25.096;2023-01-19T06:00:35;98283.97;;;10.07
76901;BMP280;65859;43.020;25.096;2023-01-19T06:03:01;98288.25;;;10.11
76901;BMP280;65859;43.020;25.096;2023-01-19T06:05:28;98299.31;;;10.13
76901;BMP280;65859;43.020;25.096;2023-01-19T06:07:55;98290.50;;;10.09
76901;BMP280;65859;43.020;25.096;2023-01-19T06:10:21;98284.84;;;10.58
76901;BMP280;65859;43.020;25.096;2023-01-19T06:12:47;98306.75;;;10.39
76901;BMP280;65859;43.020;25.096;2023-01-19T06:15:14;98313.81;;;10.04
76901;BMP280;65859;43.020;25.096;2023-01-19T06:17:40;98309.13;;;10.13
76901;BMP280;65859;43.020;25.096;2023-01-19T06:20:07;98307.13;;;10.38
76901;BMP280;65859;43.020;25.096;2023-01-19T06:22:38;98301.00;;;10.69
76901;BMP280;65859;43.020;25.096;2023-01-19T06:25:05;98299.22;;;10.57
76901;BMP280;65859;43.020;25.096;2023-01-19T06:27:32;98311.06;;;10.95
76901;BMP280;65859;43.020;25.096;2023-01-19T06:29:58;98308.63;;;12.02
76901;BMP280;65859;43.020;25.096;2023-01-19T06:32:25;98302.63;;;11.44
76901;BMP280;65859;43.020;25.096;2023-01-19T06:34:51;98295.47;;;11.28
76901;BMP280;65859;43.020;25.096;2023-01-19T06:37:17;98295.66;;;11.39
76901;BMP280;65859;43.020;25.096;2023-01-19T06:39:43;98278.81;;;11.70
76901;BMP280;65859;43.020;25.096;2023-01-19T06:42:10;98264.25;;;12.56
76901;BMP280;65859;43.020;25.096;2023-01-19T06:44:36;98279.16;;;14.50
76901;BMP280;65859;43.020;25.096;2023-01-19T06:47:03;98294.75;;;15.17
76901;BMP280;65859;43.020;25.096;2023-01-19T06:49:29;98278.38;;;15.47
76901;BMP280;65859;43.020;25.096;2023-01-19T06:51:55;98278.81;;;15.63
76901;BMP280;65859;43.020;25.096;2023-01-19T06:54:21;98273.09;;;15.72
76901;BMP280;65859;43.020;25.096;2023-01-19T06:56:47;98292.56;;;15.72
76901;BMP280;65859;43.020;25.096;2023-01-19T06:59:15;98286.47;;;16.25
76901;BMP280;65859;43.020;25.096;2023-01-19T07:01:41;98282.22;;;16.31
76901;BMP280;65859;43.020;25.096;2023-01-19T07:04:07;98286.03;;;16.41
76901;BMP280;65859;43.020;25.096;2023-01-19T07:06:33;98294.38;;;16.61
76901;BMP280;65859;43.020;25.096;2023-01-19T07:08:59;98289.03;;;16.64
76901;BMP280;65859;43.020;25.096;2023-01-19T07:11:29;98295.91;;;16.76
76901;BMP280;65859;43.020;25.096;2023-01-19T07:13:55;98307.66;;;16.96
76901;BMP280;65859;43.020;25.096;2023-01-19T07:16:22;98299.56;;;17.14
76901;BMP280;65859;43.020;25.096;2023-01-19T07:18:48;98294.44;;;17.37
76901;BMP280;65859;43.020;25.096;2023-01-19T07:21:15;98307.06;;;17.44
76901;BMP280;65859;43.020;25.096;2023-01-19T07:23:41;98295.78;;;17.63
76901;BMP280;65859;43.020;25.096;2023-01-19T07:26:08;98303.94;;;18.01
76901;BMP280;65859;43.020;25.096;2023-01-19T07:28:34;98300.94;;;17.95
76901;BMP280;65859;43.020;25.096;2023-01-19T07:31:03;98295.34;;;18.17
76901;BMP280;65859;43.020;25.096;2023-01-19T07:33:29;98306.63;;;18.39
76901;BMP280;65859;43.020;25.096;2023-01-19T07:35:55;98297.50;;;18.67
76901;BMP280;65859;43.020;25.096;2023-01-19T07:38:22;98304.94;;;18.90
76901;BMP280;65859;43.020;25.096;2023-01-19T07:40:48;98301.22;;;18.08
76901;BMP280;65859;43.020;25.096;2023-01-19T07:43:15;98297.22;;;18.23
76901;BMP280;65859;43.020;25.096;2023-01-19T07:45:41;98300.81;;;18.06
76901;BMP280;65859;43.020;25.096;2023-01-19T07:48:07;98313.44;;;17.64
76901;BMP280;65859;43.020;25.096;2023-01-19T07:50:34;98307.69;;;17.62
76901;BMP280;65859;43.020;25.096;2023-01-19T07:53:04;98282.09;;;17.99
76901;BMP280;65859;43.020;25.096;2023-01-19T07:55:30;98294.63;;;18.13
76901;BMP280;65859;43.020;25.096;2023-01-19T07:57:57;98296.78;;;18.28
76901;BMP280;65859;43.020;25.096;2023-01-19T08:00:23;98282.09;;;18.37
76901;BMP280;65859;43.020;25.096;2023-01-19T08:02:51;98315.50;;;18.70
76901;BMP280;65859;43.020;25.096;2023-01-19T08:05:19;98296.44;;;18.61
76901;BMP280;65859;43.020;25.096;2023-01-19T08:07:46;98299.44;;;18.66
76901;BMP280;65859;43.020;25.096;2023-01-19T08:10:12;98306.31;;;19.55
76901;BMP280;65859;43.020;25.096;2023-01-19T08:12:39;98289.50;;;19.47
76901;BMP280;65859;43.020;25.096;2023-01-19T08:15:07;98325.25;;;19.71
76901;BMP280;65859;43.020;25.096;2023-01-19T08:17:34;98288.97;;;19.56
76901;BMP280;65859;43.020;25.096;2023-01-19T08:20:01;98312.72;;;19.88
76901;BMP280;65859;43.020;25.096;2023-01-19T08:22:27;98306.94;;;19.86
76901;BMP280;65859;43.020;25.096;2023-01-19T08:24:54;98296.69;;;20.80
76901;BMP280;65859;43.020;25.096;2023-01-19T08:27:20;98331.44;;;19.18
76901;BMP280;65859;43.020;25.096;2023-01-19T08:29:46;98280.19;;;19.99
76901;BMP280;65859;43.020;25.096;2023-01-19T08:32:12;98297.41;;;20.45
76901;BMP280;65859;43.020;25.096;2023-01-19T08:34:40;98295.84;;;20.83
76901;BMP280;65859;43.020;25.096;2023-01-19T08:37:06;98304.59;;;21.72
76901;BMP280;65859;43.020;25.096;2023-01-19T08:39:32;98293.66;;;21.30
76901;BMP280;65859;43.020;25.096;2023-01-19T08:41:58;98300.38;;;21.55
76901;BMP280;65859;43.020;25.096;2023-01-19T08:44:26;98316.31;;;21.65
76901;BMP280;65859;43.020;25.096;2023-01-19T08:46:52;98309.91;;;21.76
76901;BMP280;65859;43.020;25.096;2023-01-19T08:49:19;98307.78;;;21.02
76901;BMP280;65859;43.020;25.096;2023-01-19T08:51:45;98307.78;;;21.02
76901;BMP280;65859;43.020;25.096;2023-01-19T08:54:12;98313.38;;;21.11
76901;BMP280;65859;43.020;25.096;2023-01-19T08:56:38;98309.34;;;21.35
76901;BMP280;65859;43.020;25.096;2023-01-19T08:59:04;98307.88;;;20.98
76901;BMP280;65859;43.020;25.096;2023-01-19T09:01:30;98318.72;;;20.95
76901;BMP280;65859;43.020;25.096;2023-01-19T09:03:57;98315.16;;;21.34
76901;BMP280;65859;43.020;25.096;2023-01-19T09:06:24;98319.47;;;21.31
76901;BMP280;65859;43.020;25.096;2023-01-19T09:08:51;98327.50;;;21.96
76901;BMP280;65859;43.020;25.096;2023-01-19T09:11:17;98329.34;;;21.99
76901;BMP280;65859;43.020;25.096;2023-01-19T09:13:43;98332.44;;;21.69
76901;BMP280;65859;43.020;25.096;2023-01-19T09:16:09;98329.38;;;21.18
76901;BMP280;65859;43.020;25.096;2023-01-19T09:18:38;98334.03;;;21.83
76901;BMP280;65859;43.020;25.096;2023-01-19T09:21:04;98338.00;;;21.62
76901;BMP280;65859;43.020;25.096;2023-01-19T09:23:30;98325.09;;;21.86
76901;BMP280;65859;43.020;25.096;2023-01-19T09:25:57;98335.41;;;22.87
76901;BMP280;65859;43.020;25.096;2023-01-19T09:28:24;98331.75;;;21.81
76901;BMP280;65859;43.020;25.096;2023-01-19T09:30:50;98344.09;;;21.66
76901;BMP280;65859;43.020;25.096;2023-01-19T09:33:17;98329.72;;;21.85
76901;BMP280;65859;43.020;25.096;2023-01-19T09:35:47;98344.00;;;21.86
76901;BMP280;65859;43.020;25.096;2023-01-19T09:38:15;98325.78;;;22.31
76901;BMP280;65859;43.020;25.096;2023-01-19T09:40:42;98331.66;;;22.43
76901;BMP280;65859;43.020;25.096;2023-01-19T09:43:20;98310.66;;;21.76
76901;BMP280;65859;43.020;25.096;2023-01-19T09:45:57;98330.06;;;22.04
76901;BMP280;65859;43.020;25.096;2023-01-19T09:48:44;98345.25;;;21.81
76901;BMP280;65859;43.020;25.096;2023-01-19T09:51:27;98357.06;;;21.87
76901;BMP280;65859;43.020;25.096;2023-01-19T09:53:55;98333.56;;;22.01
76901;BMP280;65859;43.020;25.096;2023-01-19T09:56:22;98327.16;;;22.52
76901;BMP280;65859;43.020;25.096;2023-01-19T09:58:49;98316.53;;;22.45
76901;BMP280;65859;43.020;25.096;2023-01-19T10:06:47;98307.69;;;22.57
76901;BMP280;65859;43.020;25.096;2023-01-19T10:09:26;98295.44;;;22.40
76901;BMP280;65859;43.020;25.096;2023-01-19T10:11:58;98318.50;;;22.16
76901;BMP280;65859;43.020;25.096;2023-01-19T10:19:41;98304.66;;;22.14
76901;BMP280;65859;43.020;25.096;2023-01-19T10:22:20;98284.88;;;22.58
76901;BMP280;65859;43.020;25.096;2023-01-19T10:24:47;98284.19;;;22.42
76901;BMP280;65859;43.020;25.096;2023-01-19T10:27:18;98283.56;;;22.09
76901;BMP280;65859;43.020;25.096;2023-01-19T10:29:45;98293.28;;;22.35
76901;BMP280;65859;43.020;25.096;2023-01-19T10:32:16;98295.50;;;21.95
76901;BMP280;65859;43.020;25.096;2023-01-19T10:34:44;98285.19;;;22.60
76901;BMP280;65859;43.020;25.096;2023-01-19T10:37:33;98294.56;;;22.30
76901;BMP280;65859;43.020;25.096;2023-01-19T10:42:34;98258.03;;;22.64
76901;BMP280;65859;43.020;25.096;2023-01-19T10:45:01;98258.44;;;23.01
76901;BMP280;65859;43.020;25.096;2023-01-19T10:47:32;98245.50;;;22.96
76901;BMP280;65859;43.020;25.096;2023-01-19T10:50:00;98253.13;;;23.22
76901;BMP280;65859;43.020;25.096;2023-01-19T10:52:34;98231.97;;;22.70
76901;BMP280;65859;43.020;25.096;2023-01-19T10:55:02;98252.59;;;23.84
76901;BMP280;65859;43.020;25.096;2023-01-19T10:57:30;98248.88;;;24.52
76901;BMP280;65859;43.020;25.096;2023-01-19T10:59:57;98273.91;;;24.25
76901;BMP280;65859;43.020;25.096;2023-01-19T11:02:24;98248.03;;;24.34
76901;BMP280;65859;43.020;25.096;2023-01-19T11:04:54;98254.34;;;23.78
76901;BMP280;65859;43.020;25.096;2023-01-19T11:07:28;98244.50;;;23.71
76901;BMP280;65859;43.020;25.096;2023-01-19T11:10:11;98244.41;;;22.01
76901;BMP280;65859;43.020;25.096;2023-01-19T11:12:43;98257.25;;;23.49
76901;BMP280;65859;43.020;25.096;2023-01-19T11:15:20;98249.22;;;23.58
76901;BMP280;65859;43.020;25.096;2023-01-19T11:17:47;98243.09;;;22.98
76901;BMP280;65859;43.020;25.096;2023-01-19T11:20:47;98213.53;;;21.27
76901;BMP280;65859;43.020;25.096;2023-01-19T11:23:25;98225.13;;;24.04
76901;BMP280;65859;43.020;25.096;2023-01-19T11:25:52;98210.00;;;21.30
76901;BMP280;65859;43.020;25.096;2023-01-19T11:28:30;98236.34;;;21.55
76901;BMP280;65859;43.020;25.096;2023-01-19T11:30:58;98218.63;;;23.70
76901;BMP280;65859;43.020;25.096;2023-01-19T11:33:27;98210.75;;;20.98
76901;BMP280;65859;43.020;25.096;2023-01-19T11:36:04;98189.22;;;20.62
76901;BMP280;65859;43.020;25.096;2023-01-19T11:38:31;98218.88;;;24.16
76901;BMP280;65859;43.020;25.096;2023-01-19T11:40:58;98188.22;;;21.21
76901;BMP280;65859;43.020;25.096;2023-01-19T11:43:28;98225.31;;;23.09
76901;BMP280;65859;43.020;25.096;2023-01-19T11:45:55;98228.22;;;22.13
76901;BMP280;65859;43.020;25.096;2023-01-19T11:48:24;98181.97;;;21.08
76901;BMP280;65859;43.020;25.096;2023-01-19T11:50:51;98221.31;;;23.01
76901;BMP280;65859;43.020;25.096;2023-01-19T11:53:25;98231.44;;;24.63
76901;BMP280;65859;43.020;25.096;2023-01-19T11:56:16;98212.53;;;23.22
76901;BMP280;65859;43.020;25.096;2023-01-19T11:58:43;98211.00;;;21.20
76901;BMP280;65859;43.020;25.096;2023-01-19T12:03:50;98191.56;;;20.60
76901;BMP280;65859;43.020;25.096;2023-01-19T12:06:19;98220.84;;;23.93
76901;BMP280;65859;43.020;25.096;2023-01-19T12:08:49;98194.97;;;21.75
76901;BMP280;65859;43.020;25.096;2023-01-19T12:11:17;98207.03;;;21.09
76901;BMP280;65859;43.020;25.096;2023-01-19T12:13:46;98178.28;;;21.63
76901;BMP280;65859;43.020;25.096;2023-01-19T12:16:20;98152.53;;;20.49
76901;BMP280;65859;43.020;25.096;2023-01-19T12:18:58;98178.47;;;21.27
76901;BMP280;65859;43.020;25.096;2023-01-19T12:21:25;98173.47;;;20.25
76901;BMP280;65859;43.020;25.096;2023-01-19T12:26:36;98178.63;;;20.88
76901;BMP280;65859;43.020;25.096;2023-01-19T12:29:09;98187.34;;;21.98
76901;BMP280;65859;43.020;25.096;2023-01-19T12:31:36;98201.34;;;23.20
76901;BMP280;65859;43.020;25.096;2023-01-19T12:36:50;98182.94;;;20.85
76901;BMP280;65859;43.020;25.096;2023-01-19T12:39:20;98202.75;;;22.52
76901;BMP280;65859;43.020;25.096;2023-01-19T12:41:47;98185.41;;;21.99
76901;BMP280;65859;43.020;25.096;2023-01-19T12:44:15;98189.91;;;20.30
76901;BMP280;65859;43.020;25.096;2023-01-19T12:46:51;98171.97;;;20.92
76901;BMP280;65859;43.020;25.096;2023-01-19T12:54:36;98159.25;;;20.77
76901;BMP280;65859;43.020;25.096;2023-01-19T12:57:07;98165.22;;;20.68
76901;BMP280;65859;43.020;25.096;2023-01-19T12:59:35;98196.22;;;20.60
76901;BMP280;65859;43.020;25.096;2023-01-19T13:07:28;98199.56;;;20.64
76901;BMP280;65859;43.020;25.096;2023-01-19T13:09:54;98192.97;;;20.68
76901;BMP280;65859;43.020;25.096;2023-01-19T13:12:22;98202.19;;;20.51
76901;BMP280;65859;43.020;25.096;2023-01-19T13:14:50;98184.81;;;20.52
76901;BMP280;65859;43.020;25.096;2023-01-19T13:17:57;98201.34;;;20.70
76901;BMP280;65859;43.020;25.096;2023-01-19T13:20:24;98201.03;;;20.68
76901;BMP280;65859;43.020;25.096;2023-01-19T13:25:29;98220.31;;;20.67
76901;BMP280;65859;43.020;25.096;2023-01-19T13:27:56;98230.38;;;20.83
76901;BMP280;65859;43.020;25.096;2023-01-19T13:30:23;98227.69;;;20.83
76901;BMP280;65859;43.020;25.096;2023-01-19T13:32:55;98225.53;;;20.74
76901;BMP280;65859;43.020;25.096;2023-01-19T13:35:22;98176.41;;;20.66
76901;BMP280;65859;43.020;25.096;2023-01-19T13:37:49;98219.59;;;20.47
76901;BMP280;65859;43.020;25.096;2023-01-19T13:40:23;98228.69;;;20.53
76901;BMP280;65859;43.020;25.096;2023-01-19T13:42:50;98232.25;;;20.30
76901;BMP280;65859;43.020;25.096;2023-01-19T13:45:26;98227.06;;;20.19
76901;BMP280;65859;43.020;25.096;2023-01-19T13:47:53;98231.63;;;20.42
76901;BMP280;65859;43.020;25.096;2023-01-19T13:50:25;98223.00;;;20.31
76901;BMP280;65859;43.020;25.096;2023-01-19T13:52:52;98223.03;;;20.27
76901;BMP280;65859;43.020;25.096;2023-01-19T13:55:21;98231.47;;;20.13
76901;BMP280;65859;43.020;25.096;2023-01-19T13:57:48;98224.19;;;20.10
76901;BMP280;65859;43.020;25.096;2023-01-19T14:00:15;98217.34;;;20.05
76901;BMP280;65859;43.020;25.096;2023-01-19T14:10:25;98205.84;;;19.62
76901;BMP280;65859;43.020;25.096;2023-01-19T14:13:05;98219.50;;;19.51
76901;BMP280;65859;43.020;25.096;2023-01-19T14:15:33;98238.13;;;19.38
76901;BMP280;65859;43.020;25.096;2023-01-19T14:18:53;98231.69;;;19.32
76901;BMP280;65859;43.020;25.096;2023-01-19T14:21:23;98237.97;;;19.26
76901;BMP280;65859;43.020;25.096;2023-01-19T14:23:50;98238.22;;;19.08
76901;BMP280;65859;43.020;25.096;2023-01-19T14:31:41;98229.72;;;18.82
76901;BMP280;65859;43.020;25.096;2023-01-19T14:34:27;98229.66;;;18.90
76901;BMP280;65859;43.020;25.096;2023-01-19T14:36:53;98228.63;;;18.80
76901;BMP280;65859;43.020;25.096;2023-01-19T14:39:20;98245.53;;;18.77
76901;BMP280;65859;43.020;25.096;2023-01-19T14:41:48;98240.63;;;18.72
76901;BMP280;65859;43.020;25.096;2023-01-19T14:44:18;98243.34;;;18.68
76901;BMP280;65859;43.020;25.096;2023-01-19T14:46:48;98253.69;;;18.70
76901;BMP280;65859;43.020;25.096;2023-01-19T14:49:19;98254.56;;;18.63
76901;BMP280;65859;43.020;25.096;2023-01-19T14:51:46;98251.88;;;18.63
76901;BMP280;65859;43.020;25.096;2023-01-19T14:54:17;98259.94;;;18.63
76901;BMP280;65859;43.020;25.096;2023-01-19T14:56:43;98256.59;;;18.55
76901;BMP280;65859;43.020;25.096;2023-01-19T14:59:10;98264.34;;;18.46
76901;BMP280;65859;43.020;25.096;2023-01-19T15:01:36;98258.28;;;18.39
76901;BMP280;65859;43.020;25.096;2023-01-19T15:04:02;98261.47;;;18.30
76901;BMP280;65859;43.020;25.096;2023-01-19T15:06:28;98269.16;;;18.28
76901;BMP280;65859;43.020;25.096;2023-01-19T15:08:56;98267.38;;;18.14